sensor_id;sensor_type;location;lat;lon;timestamp;P1;durP1;ratioP1;P2;durP2;ratioP2
22160;SDS011;49035;48.812;11.762;2023-03-03T00:00:28;52.73;;;22.67;;
22160;SDS011;49035;48.812;11.762;2023-03-03T00:02:56;50.20;;;23.27;;
22160;SDS011;49035;48.812;11.762;2023-03-03T00:05:25;50.87;;;22.50;;
22160;SDS011;49035;48.812;11.762;2023-03-03T00:07:51;40.93;;;19.60;;
22160;SDS011;49035;48.812;11.762;2023-03-03T00:10:17;45.90;;;21.27;;
22160;SDS011;49035;48.812;11.762;2023-03-03T00:12:45;48.07;;;21.53;;
22160;SDS011;49035;48.812;11.762;2023-03-03T00:15:14;44.73;;;21.10;;
22160;SDS011;49035;48.812;11.762;2023-03-03T00:17:43;44.37;;;19.93;;
22160;SDS011;49035;48.812;11.762;2023-03-03T00:23:04;46.03;;;20.67;;
22160;SDS011;49035;48.812;11.762;2023-03-03T00:25:44;51.60;;;22.73;;
22160;SDS011;49035;48.812;11.762;2023-03-03T00:30:43;38.50;;;19.27;;
22160;SDS011;49035;48.812;11.762;2023-03-03T00:33:21;37.13;;;18.33;;
22160;SDS011;49035;48.812;11.762;2023-03-03T00:36:18;37.33;;;18.03;;
22160;SDS011;49035;48.812;11.762;2023-03-03T00:39:10;39.33;;;18.50;;
22160;SDS011;49035;48.812;11.762;2023-03-03T00:41:45;54.97;;;20.53;;
22160;SDS011;49035;48.812;11.762;2023-03-03T00:46:56;41.77;;;18.60;;
22160;SDS011;49035;48.812;11.762;2023-03-03T00:49:26;49.77;;;19.97;;
22160;SDS011;49035;48.812;11.762;2023-03-03T00:51:52;42.93;;;18.83;;
22160;SDS011;49035;48.812;11.762;2023-03-03T00:54:18;43.60;;;19.10;;
22160;SDS011;49035;48.812;11.762;2023-03-03T00:56:44;39.00;;;18.13;;
22160;SDS011;49035;48.812;11.762;2023-03-03T00:59:09;46.53;;;21.37;;
22160;SDS011;49035;48.812;11.762;2023-03-03T01:01:35;47.20;;;20.27;;
22160;SDS011;49035;48.812;11.762;2023-03-03T01:04:01;46.30;;;21.70;;
22160;SDS011;49035;48.812;11.762;2023-03-03T01:06:27;38.80;;;17.97;;
22160;SDS011;49035;48.812;11.762;2023-03-03T01:08:52;41.93;;;19.40;;
22160;SDS011;49035;48.812;11.762;2023-03-03T01:11:22;44.80;;;19.67;;
22160;SDS011;49035;48.812;11.762;2023-03-03T01:13:50;40.87;;;18.37;;
22160;SDS011;49035;48.812;11.762;2023-03-03T01:16:17;31.27;;;16.13;;
22160;SDS011;49035;48.812;11.762;2023-03-03T01:18:43;45.53;;;20.77;;
22160;SDS011;49035;48.812;11.762;2023-03-03T01:21:09;49.47;;;22.80;;
22160;SDS011;49035;48.812;11.762;2023-03-03T01:23:35;59.07;;;22.87;;
22160;SDS011;49035;48.812;11.762;2023-03-03T01:26:02;53.33;;;22.87;;
22160;SDS011;49035;48.812;11.762;2023-03-03T01:28:28;54.70;;;22.73;;
22160;SDS011;49035;48.812;11.762;2023-03-03T01:30:54;48.30;;;20.33;;
22160;SDS011;49035;48.812;11.762;2023-03-03T01:33:25;57.07;;;22.03;;
22160;SDS011;49035;48.812;11.762;2023-03-03T01:35:51;52.20;;;23.93;;
22160;SDS011;49035;48.812;11.762;2023-03-03T01:38:16;59.50;;;23.40;;
22160;SDS011;49035;48.812;11.762;2023-03-03T01:40:42;63.27;;;25.93;;
22160;SDS011;49035;48.812;11.762;2023-03-03T01:43:07;70.90;;;27.87;;
22160;SDS011;49035;48.812;11.762;2023-03-03T01:48:32;64.50;;;26.03;;
22160;SDS011;49035;48.812;11.762;2023-03-03T01:53:47;62.77;;;25.57;;
22160;SDS011;49035;48.812;11.762;2023-03-03T01:56:16;75.03;;;27.43;;
22160;SDS011;49035;48.812;11.762;2023-03-03T01:58:47;78.20;;;29.83;;
22160;SDS011;49035;48.812;11.762;2023-03-03T02:01:18;86.60;;;30.70;;
22160;SDS011;49035;48.812;11.762;2023-03-03T02:03:46;67.83;;;28.37;;
22160;SDS011;49035;48.812;11.762;2023-03-03T02:06:13;82.23;;;32.30;;
22160;SDS011;49035;48.812;11.762;2023-03-03T02:08:46;76.30;;;29.93;;
22160;SDS011;49035;48.812;11.762;2023-03-03T02:11:23;76.03;;;29.93;;
22160;SDS011;49035;48.812;11.762;2023-03-03T02:13:50;77.20;;;29.67;;
22160;SDS011;49035;48.812;11.762;2023-03-03T02:16:15;80.73;;;30.87;;
22160;SDS011;49035;48.812;11.762;2023-03-03T02:18:41;76.43;;;28.27;;
22160;SDS011;49035;48.812;11.762;2023-03-03T02:21:11;76.17;;;28.43;;
22160;SDS011;49035;48.812;11.762;2023-03-03T02:26:13;72.47;;;25.87;;
22160;SDS011;49035;48.812;11.762;2023-03-03T02:28:41;69.80;;;27.00;;
22160;SDS011;49035;48.812;11.762;2023-03-03T02:31:08;65.80;;;26.87;;
22160;SDS011;49035;48.812;11.762;2023-03-03T02:33:37;76.13;;;28.30;;
22160;SDS011;49035;48.812;11.762;2023-03-03T02:36:04;79.00;;;27.83;;
22160;SDS011;49035;48.812;11.762;2023-03-03T02:43:55;77.83;;;28.43;;
22160;SDS011;49035;48.812;11.762;2023-03-03T02:46:34;68.93;;;28.30;;
22160;SDS011;49035;48.812;11.762;2023-03-03T02:49:02;71.33;;;26.90;;
22160;SDS011;49035;48.812;11.762;2023-03-03T02:51:28;74.30;;;27.77;;
22160;SDS011;49035;48.812;11.762;2023-03-03T02:53:54;63.17;;;26.50;;
22160;SDS011;49035;48.812;11.762;2023-03-03T02:56:20;78.07;;;28.87;;
22160;SDS011;49035;48.812;11.762;2023-03-03T02:58:45;75.70;;;27.37;;
22160;SDS011;49035;48.812;11.762;2023-03-03T03:01:11;74.07;;;27.83;;
22160;SDS011;49035;48.812;11.762;2023-03-03T03:03:37;68.67;;;27.67;;
22160;SDS011;49035;48.812;11.762;2023-03-03T03:06:02;72.83;;;25.87;;
22160;SDS011;49035;48.812;11.762;2023-03-03T03:08:28;70.70;;;26.70;;
22160;SDS011;49035;48.812;11.762;2023-03-03T03:10:54;83.73;;;29.83;;
22160;SDS011;49035;48.812;11.762;2023-03-03T03:13:21;72.37;;;27.93;;
22160;SDS011;49035;48.812;11.762;2023-03-03T03:15:47;79.27;;;30.50;;
22160;SDS011;49035;48.812;11.762;2023-03-03T03:18:13;87.53;;;30.43;;
22160;SDS011;49035;48.812;11.762;2023-03-03T03:20:40;86.40;;;31.43;;
22160;SDS011;49035;48.812;11.762;2023-03-03T03:23:06;81.97;;;32.60;;
22160;SDS011;49035;48.812;11.762;2023-03-03T03:25:32;87.20;;;32.23;;
22160;SDS011;49035;48.812;11.762;2023-03-03T03:27:58;82.20;;;33.23;;
22160;SDS011;49035;48.812;11.762;2023-03-03T03:30:24;87.07;;;32.00;;
22160;SDS011;49035;48.812;11.762;2023-03-03T03:32:50;85.93;;;33.13;;
22160;SDS011;49035;48.812;11.762;2023-03-03T03:35:16;88.97;;;35.90;;
22160;SDS011;49035;48.812;11.762;2023-03-03T03:37:42;83.90;;;31.80;;
22160;SDS011;49035;48.812;11.762;2023-03-03T03:40:10;83.87;;;31.47;;
22160;SDS011;49035;48.812;11.762;2023-03-03T03:42:36;81.73;;;30.57;;
22160;SDS011;49035;48.812;11.762;2023-03-03T03:45:04;82.70;;;30.17;;
22160;SDS011;49035;48.812;11.762;2023-03-03T03:47:31;80.30;;;29.73;;
22160;SDS011;49035;48.812;11.762;2023-03-03T03:49:56;75.80;;;30.07;;
22160;SDS011;49035;48.812;11.762;2023-03-03T03:52:22;69.70;;;28.17;;
22160;SDS011;49035;48.812;11.762;2023-03-03T03:54:48;67.07;;;26.30;;
22160;SDS011;49035;48.812;11.762;2023-03-03T03:57:13;70.63;;;27.80;;
22160;SDS011;49035;48.812;11.762;2023-03-03T03:59:39;73.30;;;27.83;;
22160;SDS011;49035;48.812;11.762;2023-03-03T04:02:04;69.03;;;27.83;;
22160;SDS011;49035;48.812;11.762;2023-03-03T04:04:30;86.33;;;29.47;;
22160;SDS011;49035;48.812;11.762;2023-03-03T04:06:56;74.93;;;29.17;;
22160;SDS011;49035;48.812;11.762;2023-03-03T04:09:21;75.07;;;30.67;;
22160;SDS011;49035;48.812;11.762;2023-03-03T04:11:47;89.03;;;32.97;;
22160;SDS011;49035;48.812;11.762;2023-03-03T04:14:13;78.77;;;30.30;;
22160;SDS011;49035;48.812;11.762;2023-03-03T04:16:38;87.10;;;30.63;;
22160;SDS011;49035;48.812;11.762;2023-03-03T04:19:04;92.77;;;32.77;;
22160;SDS011;49035;48.812;11.762;2023-03-03T04:21:30;95.90;;;33.37;;
22160;SDS011;49035;48.812;11.762;2023-03-03T04:23:55;95.27;;;36.13;;
22160;SDS011;49035;48.812;11.762;2023-03-03T04:26:21;99.33;;;35.10;;
22160;SDS011;49035;48.812;11.762;2023-03-03T04:28:47;97.90;;;36.40;;
22160;SDS011;49035;48.812;11.762;2023-03-03T04:31:12;97.80;;;34.57;;
22160;SDS011;49035;48.812;11.762;2023-03-03T04:33:38;105.07;;;36.13;;
22160;SDS011;49035;48.812;11.762;2023-03-03T04:36:03;107.50;;;37.57;;
22160;SDS011;49035;48.812;11.762;2023-03-03T04:38:30;96.03;;;34.93;;
22160;SDS011;49035;48.812;11.762;2023-03-03T04:40:56;101.90;;;34.50;;
22160;SDS011;49035;48.812;11.762;2023-03-03T04:43:22;111.53;;;36.57;;
22160;SDS011;49035;48.812;11.762;2023-03-03T04:45:48;100.83;;;36.60;;
22160;SDS011;49035;48.812;11.762;2023-03-03T04:48:13;99.03;;;36.60;;
22160;SDS011;49035;48.812;11.762;2023-03-03T04:50:40;96.27;;;35.40;;
22160;SDS011;49035;48.812;11.762;2023-03-03T04:53:06;101.60;;;37.80;;
22160;SDS011;49035;48.812;11.762;2023-03-03T04:55:31;100.43;;;36.43;;
22160;SDS011;49035;48.812;11.762;2023-03-03T04:57:57;108.47;;;36.03;;
22160;SDS011;49035;48.812;11.762;2023-03-03T05:00:22;97.90;;;35.37;;
22160;SDS011;49035;48.812;11.762;2023-03-03T05:02:48;117.37;;;37.83;;
22160;SDS011;49035;48.812;11.762;2023-03-03T05:05:14;105.07;;;38.27;;
22160;SDS011;49035;48.812;11.762;2023-03-03T05:07:39;106.27;;;36.47;;
22160;SDS011;49035;48.812;11.762;2023-03-03T05:10:06;108.57;;;36.60;;
22160;SDS011;49035;48.812;11.762;2023-03-03T05:12:32;98.20;;;35.30;;
22160;SDS011;49035;48.812;11.762;2023-03-03T05:14:57;100.63;;;36.90;;
22160;SDS011;49035;48.812;11.762;2023-03-03T05:17:23;107.50;;;34.97;;
22160;SDS011;49035;48.812;11.762;2023-03-03T05:19:49;106.07;;;35.20;;
22160;SDS011;49035;48.812;11.762;2023-03-03T05:22:14;98.10;;;35.90;;
22160;SDS011;49035;48.812;11.762;2023-03-03T05:24:40;97.70;;;35.03;;
22160;SDS011;49035;48.812;11.762;2023-03-03T05:27:07;93.10;;;35.87;;
22160;SDS011;49035;48.812;11.762;2023-03-03T05:29:32;96.30;;;36.10;;
22160;SDS011;49035;48.812;11.762;2023-03-03T05:31:59;98.37;;;33.20;;
22160;SDS011;49035;48.812;11.762;2023-03-03T05:34:25;100.83;;;32.70;;
22160;SDS011;49035;48.812;11.762;2023-03-03T05:36:50;106.37;;;36.47;;
22160;SDS011;49035;48.812;11.762;2023-03-03T05:39:16;94.40;;;34.87;;
22160;SDS011;49035;48.812;11.762;2023-03-03T05:41:42;92.07;;;33.40;;
22160;SDS011;49035;48.812;11.762;2023-03-03T05:44:07;116.70;;;36.93;;
22160;SDS011;49035;48.812;11.762;2023-03-03T05:46:33;108.30;;;37.90;;
22160;SDS011;49035;48.812;11.762;2023-03-03T05:48:59;92.60;;;34.93;;
22160;SDS011;49035;48.812;11.762;2023-03-03T05:51:24;101.73;;;36.37;;
22160;SDS011;49035;48.812;11.762;2023-03-03T05:53:50;106.70;;;37.67;;
22160;SDS011;49035;48.812;11.762;2023-03-03T05:56:15;106.27;;;36.43;;
22160;SDS011;49035;48.812;11.762;2023-03-03T05:58:41;103.87;;;38.60;;
22160;SDS011;49035;48.812;11.762;2023-03-03T06:01:07;107.57;;;37.80;;
22160;SDS011;49035;48.812;11.762;2023-03-03T06:03:33;101.47;;;37.00;;
22160;SDS011;49035;48.812;11.762;2023-03-03T06:05:58;106.10;;;35.83;;
22160;SDS011;49035;48.812;11.762;2023-03-03T06:08:24;107.97;;;36.23;;
22160;SDS011;49035;48.812;11.762;2023-03-03T06:10:49;103.10;;;35.30;;
22160;SDS011;49035;48.812;11.762;2023-03-03T06:13:15;93.50;;;34.63;;
22160;SDS011;49035;48.812;11.762;2023-03-03T06:15:43;109.83;;;35.27;;
22160;SDS011;49035;48.812;11.762;2023-03-03T06:18:09;88.63;;;33.67;;
22160;SDS011;49035;48.812;11.762;2023-03-03T06:20:34;105.30;;;35.07;;
22160;SDS011;49035;48.812;11.762;2023-03-03T06:23:00;108.00;;;38.37;;
22160;SDS011;49035;48.812;11.762;2023-03-03T06:25:26;98.93;;;37.37;;
22160;SDS011;49035;48.812;11.762;2023-03-03T06:27:52;114.00;;;37.33;;
22160;SDS011;49035;48.812;11.762;2023-03-03T06:30:18;109.40;;;39.63;;
22160;SDS011;49035;48.812;11.762;2023-03-03T06:32:44;109.07;;;37.33;;
22160;SDS011;49035;48.812;11.762;2023-03-03T06:35:10;103.27;;;36.47;;
22160;SDS011;49035;48.812;11.762;2023-03-03T06:37:36;106.90;;;38.67;;
22160;SDS011;49035;48.812;11.762;2023-03-03T06:40:02;107.07;;;37.17;;
22160;SDS011;49035;48.812;11.762;2023-03-03T06:42:30;114.37;;;40.33;;
22160;SDS011;49035;48.812;11.762;2023-03-03T06:44:56;122.27;;;39.63;;
22160;SDS011;49035;48.812;11.762;2023-03-03T06:47:21;115.83;;;41.03;;
22160;SDS011;49035;48.812;11.762;2023-03-03T06:49:47;118.40;;;39.67;;
22160;SDS011;49035;48.812;11.762;2023-03-03T06:52:14;116.60;;;40.67;;
22160;SDS011;49035;48.812;11.762;2023-03-03T06:54:48;102.70;;;37.40;;
22160;SDS011;49035;48.812;11.762;2023-03-03T06:57:23;116.30;;;40.70;;
22160;SDS011;49035;48.812;11.762;2023-03-03T07:00:05;121.20;;;41.90;;
22160;SDS011;49035;48.812;11.762;2023-03-03T07:02:40;120.47;;;38.47;;
22160;SDS011;49035;48.812;11.762;2023-03-03T07:05:08;113.10;;;35.40;;
22160;SDS011;49035;48.812;11.762;2023-03-03T07:07:38;107.67;;;36.77;;
22160;SDS011;49035;48.812;11.762;2023-03-03T07:10:22;113.47;;;39.97;;
22160;SDS011;49035;48.812;11.762;2023-03-03T07:12:51;107.73;;;38.77;;
22160;SDS011;49035;48.812;11.762;2023-03-03T07:15:22;111.93;;;38.20;;
22160;SDS011;49035;48.812;11.762;2023-03-03T07:17:58;108.80;;;37.67;;
22160;SDS011;49035;48.812;11.762;2023-03-03T07:20:37;136.60;;;42.77;;
22160;SDS011;49035;48.812;11.762;2023-03-03T07:25:52;121.00;;;40.87;;
22160;SDS011;49035;48.812;11.762;2023-03-03T07:28:22;124.03;;;41.57;;
22160;SDS011;49035;48.812;11.762;2023-03-03T07:30:50;124.17;;;40.93;;
22160;SDS011;49035;48.812;11.762;2023-03-03T07:33:28;111.47;;;39.70;;
22160;SDS011;49035;48.812;11.762;2023-03-03T07:36:17;120.73;;;39.77;;
22160;SDS011;49035;48.812;11.762;2023-03-03T07:39:00;108.73;;;40.73;;
22160;SDS011;49035;48.812;11.762;2023-03-03T07:41:29;123.70;;;42.93;;
22160;SDS011;49035;48.812;11.762;2023-03-03T07:46:35;128.10;;;45.83;;
22160;SDS011;49035;48.812;11.762;2023-03-03T07:51:55;131.13;;;45.00;;
22160;SDS011;49035;48.812;11.762;2023-03-03T07:54:26;107.30;;;39.77;;
22160;SDS011;49035;48.812;11.762;2023-03-03T07:59:33;82.03;;;35.73;;
22160;SDS011;49035;48.812;11.762;2023-03-03T08:02:00;76.67;;;34.43;;
22160;SDS011;49035;48.812;11.762;2023-03-03T08:04:40;83.17;;;34.90;;
22160;SDS011;49035;48.812;11.762;2023-03-03T08:07:13;66.83;;;30.33;;
22160;SDS011;49035;48.812;11.762;2023-03-03T08:09:42;60.30;;;29.30;;
22160;SDS011;49035;48.812;11.762;2023-03-03T08:14:40;58.23;;;27.90;;
22160;SDS011;49035;48.812;11.762;2023-03-03T08:17:29;53.63;;;26.03;;
22160;SDS011;49035;48.812;11.762;2023-03-03T08:19:57;48.60;;;24.23;;
22160;SDS011;49035;48.812;11.762;2023-03-03T08:22:32;38.30;;;19.37;;
22160;SDS011;49035;48.812;11.762;2023-03-03T08:25:00;37.67;;;20.20;;
22160;SDS011;49035;48.812;11.762;2023-03-03T08:27:26;35.43;;;18.63;;
22160;SDS011;49035;48.812;11.762;2023-03-03T08:29:51;41.00;;;19.63;;
22160;SDS011;49035;48.812;11.762;2023-03-03T08:32:17;41.67;;;19.40;;
22160;SDS011;49035;48.812;11.762;2023-03-03T08:34:43;37.47;;;19.67;;
22160;SDS011;49035;48.812;11.762;2023-03-03T08:37:08;43.40;;;20.43;;
22160;SDS011;49035;48.812;11.762;2023-03-03T08:39:34;36.90;;;20.17;;
22160;SDS011;49035;48.812;11.762;2023-03-03T08:42:00;46.93;;;22.80;;
22160;SDS011;49035;48.812;11.762;2023-03-03T08:44:25;41.60;;;22.13;;
22160;SDS011;49035;48.812;11.762;2023-03-03T08:46:51;38.30;;;20.10;;
22160;SDS011;49035;48.812;11.762;2023-03-03T08:49:17;45.27;;;20.73;;
22160;SDS011;49035;48.812;11.762;2023-03-03T08:51:42;35.23;;;19.33;;
22160;SDS011;49035;48.812;11.762;2023-03-03T08:54:08;41.40;;;22.23;;
22160;SDS011;49035;48.812;11.762;2023-03-03T08:56:34;41.93;;;20.33;;
22160;SDS011;49035;48.812;11.762;2023-03-03T08:58:59;41.90;;;20.07;;
22160;SDS011;49035;48.812;11.762;2023-03-03T09:01:25;35.77;;;19.87;;
22160;SDS011;49035;48.812;11.762;2023-03-03T09:03:51;40.33;;;19.13;;
22160;SDS011;49035;48.812;11.762;2023-03-03T09:06:16;38.63;;;20.17;;
22160;SDS011;49035;48.812;11.762;2023-03-03T09:08:42;37.03;;;19.97;;
22160;SDS011;49035;48.812;11.762;2023-03-03T09:11:14;36.10;;;19.63;;
22160;SDS011;49035;48.812;11.762;2023-03-03T09:13:47;38.27;;;21.90;;
22160;SDS011;49035;48.812;11.762;2023-03-03T09:16:17;39.37;;;21.07;;
22160;SDS011;49035;48.812;11.762;2023-03-03T09:18:42;39.20;;;20.63;;
22160;SDS011;49035;48.812;11.762;2023-03-03T09:21:20;34.50;;;19.83;;
22160;SDS011;49035;48.812;11.762;2023-03-03T09:23:54;43.83;;;21.67;;
22160;SDS011;49035;48.812;11.762;2023-03-03T09:26:25;41.97;;;21.83;;
22160;SDS011;49035;48.812;11.762;2023-03-03T09:31:44;39.40;;;21.20;;
22160;SDS011;49035;48.812;11.762;2023-03-03T09:34:22;42.47;;;21.63;;
22160;SDS011;49035;48.812;11.762;2023-03-03T09:36:52;42.23;;;20.77;;
22160;SDS011;49035;48.812;11.762;2023-03-03T09:39:23;42.70;;;21.33;;
22160;SDS011;49035;48.812;11.762;2023-03-03T09:45:11;41.23;;;20.73;;
22160;SDS011;49035;48.812;11.762;2023-03-03T09:56:27;42.00;;;20.27;;
22160;SDS011;49035;48.812;11.762;2023-03-03T10:01:48;34.87;;;19.87;;
22160;SDS011;49035;48.812;11.762;2023-03-03T10:12:42;35.33;;;19.90;;
22160;SDS011;49035;48.812;11.762;2023-03-03T10:15:17;39.00;;;20.87;;
22160;SDS011;49035;48.812;11.762;2023-03-03T10:22:55;35.57;;;20.13;;
22160;SDS011;49035;48.812;11.762;2023-03-03T10:25:34;31.77;;;18.73;;
22160;SDS011;49035;48.812;11.762;2023-03-03T10:28:22;35.63;;;19.63;;
22160;SDS011;49035;48.812;11.762;2023-03-03T10:33:43;35.60;;;19.57;;
22160;SDS011;49035;48.812;11.762;2023-03-03T10:39:19;33.03;;;18.30;;
22160;SDS011;49035;48.812;11.762;2023-03-03T10:42:10;32.23;;;18.50;;
22160;SDS011;49035;48.812;11.762;2023-03-03T10:44:52;34.97;;;18.53;;
22160;SDS011;49035;48.812;11.762;2023-03-03T10:50:20;33.67;;;19.67;;
22160;SDS011;49035;48.812;11.762;2023-03-03T10:58:39;34.27;;;19.27;;
22160;SDS011;49035;48.812;11.762;2023-03-03T11:12:57;35.57;;;19.57;;
22160;SDS011;49035;48.812;11.762;2023-03-03T11:15:48;34.10;;;20.05;;
22160;SDS011;49035;48.812;11.762;2023-03-03T11:18:20;31.60;;;18.83;;
22160;SDS011;49035;48.812;11.762;2023-03-03T11:21:08;34.30;;;18.65;;
22160;SDS011;49035;48.812;11.762;2023-03-03T11:24:00;32.50;;;18.97;;
22160;SDS011;49035;48.812;11.762;2023-03-03T11:26:54;30.23;;;19.20;;
22160;SDS011;49035;48.812;11.762;2023-03-03T11:32:08;36.47;;;19.27;;
22160;SDS011;49035;48.812;11.762;2023-03-03T11:40:26;32.63;;;18.70;;
22160;SDS011;49035;48.812;11.762;2023-03-03T11:45:40;38.70;;;19.93;;
22160;SDS011;49035;48.812;11.762;2023-03-03T11:51:04;34.05;;;19.70;;
22160;SDS011;49035;48.812;11.762;2023-03-03T11:56:39;34.17;;;20.27;;
22160;SDS011;49035;48.812;11.762;2023-03-03T11:59:17;31.90;;;19.85;;
22160;SDS011;49035;48.812;11.762;2023-03-03T12:04:26;34.28;;;19.52;;
22160;SDS011;49035;48.812;11.762;2023-03-03T12:26:38;29.30;;;18.08;;
22160;SDS011;49035;48.812;11.762;2023-03-03T12:35:02;30.98;;;17.60;;
22160;SDS011;49035;48.812;11.762;2023-03-03T12:40:48;31.60;;;17.67;;
22160;SDS011;49035;48.812;11.762;2023-03-03T12:48:44;33.10;;;18.92;;
22160;SDS011;49035;48.812;11.762;2023-03-03T12:54:15;32.45;;;18.95;;
22160;SDS011;49035;48.812;11.762;2023-03-03T12:56:39;30.33;;;18.02;;
22160;SDS011;49035;48.812;11.762;2023-03-03T13:06:57;31.60;;;18.42;;
22160;SDS011;49035;48.812;11.762;2023-03-03T13:15:24;34.33;;;19.95;;
22160;SDS011;49035;48.812;11.762;2023-03-03T13:20:44;31.98;;;18.77;;
22160;SDS011;49035;48.812;11.762;2023-03-03T13:23:30;31.20;;;18.13;;
22160;SDS011;49035;48.812;11.762;2023-03-03T13:26:25;34.88;;;18.52;;
22160;SDS011;49035;48.812;11.762;2023-03-03T13:29:11;33.42;;;17.92;;
22160;SDS011;49035;48.812;11.762;2023-03-03T13:31:56;27.73;;;16.33;;
22160;SDS011;49035;48.812;11.762;2023-03-03T13:34:38;26.38;;;17.10;;
22160;SDS011;49035;48.812;11.762;2023-03-03T13:37:13;27.95;;;18.10;;
22160;SDS011;49035;48.812;11.762;2023-03-03T13:42:39;78.43;;;46.78;;
22160;SDS011;49035;48.812;11.762;2023-03-03T13:50:52;32.35;;;16.98;;
22160;SDS011;49035;48.812;11.762;2023-03-03T13:56:27;29.63;;;15.93;;
22160;SDS011;49035;48.812;11.762;2023-03-03T13:59:40;27.15;;;16.55;;
22160;SDS011;49035;48.812;11.762;2023-03-03T14:02:28;28.55;;;17.02;;
22160;SDS011;49035;48.812;11.762;2023-03-03T14:05:25;26.25;;;16.75;;
22160;SDS011;49035;48.812;11.762;2023-03-03T14:08:43;33.55;;;17.15;;
22160;SDS011;49035;48.812;11.762;2023-03-03T14:16:21;27.98;;;16.30;;
22160;SDS011;49035;48.812;11.762;2023-03-03T14:24:56;27.70;;;16.75;;
22160;SDS011;49035;48.812;11.762;2023-03-03T14:27:37;30.80;;;16.70;;
22160;SDS011;49035;48.812;11.762;2023-03-03T14:35:24;27.48;;;16.73;;
22160;SDS011;49035;48.812;11.762;2023-03-03T14:38:00;33.28;;;16.17;;
22160;SDS011;49035;48.812;11.762;2023-03-03T14:40:40;23.63;;;15.18;;
22160;SDS011;49035;48.812;11.762;2023-03-03T14:43:22;29.10;;;16.75;;
22160;SDS011;49035;48.812;11.762;2023-03-03T14:45:50;24.55;;;14.45;;
22160;SDS011;49035;48.812;11.762;2023-03-03T14:55:44;31.77;;;15.82;;
22160;SDS011;49035;48.812;11.762;2023-03-03T14:58:33;28.77;;;15.60;;
22160;SDS011;49035;48.812;11.762;2023-03-03T15:01:14;32.20;;;15.35;;
22160;SDS011;49035;48.812;11.762;2023-03-03T15:03:45;30.10;;;15.35;;
22160;SDS011;49035;48.812;11.762;2023-03-03T15:06:29;29.10;;;15.80;;
22160;SDS011;49035;48.812;11.762;2023-03-03T15:11:45;26.33;;;15.25;;
22160;SDS011;49035;48.812;11.762;2023-03-03T15:14:16;26.25;;;14.25;;
22160;SDS011;49035;48.812;11.762;2023-03-03T15:16:44;22.67;;;14.18;;
22160;SDS011;49035;48.812;11.762;2023-03-03T15:22:02;24.63;;;14.98;;
22160;SDS011;49035;48.812;11.762;2023-03-03T15:24:41;23.90;;;14.90;;
22160;SDS011;49035;48.812;11.762;2023-03-03T15:27:19;25.90;;;14.85;;
22160;SDS011;49035;48.812;11.762;2023-03-03T15:29:54;29.73;;;15.63;;
22160;SDS011;49035;48.812;11.762;2023-03-03T15:32:46;23.10;;;14.00;;
22160;SDS011;49035;48.812;11.762;2023-03-03T15:43:46;30.08;;;15.65;;
22160;SDS011;49035;48.812;11.762;2023-03-03T15:46:44;25.98;;;15.25;;
22160;SDS011;49035;48.812;11.762;2023-03-03T15:49:39;27.33;;;16.00;;
22160;SDS011;49035;48.812;11.762;2023-03-03T16:03:26;28.77;;;15.00;;
22160;SDS011;49035;48.812;11.762;2023-03-03T16:06:10;28.25;;;15.15;;
22160;SDS011;49035;48.812;11.762;2023-03-03T16:11:33;27.52;;;14.98;;
22160;SDS011;49035;48.812;11.762;2023-03-03T16:17:11;23.70;;;14.32;;
22160;SDS011;49035;48.812;11.762;2023-03-03T16:25:05;22.80;;;14.00;;
22160;SDS011;49035;48.812;11.762;2023-03-03T16:27:45;29.15;;;14.23;;
22160;SDS011;49035;48.812;11.762;2023-03-03T16:38:49;22.60;;;14.07;;
22160;SDS011;49035;48.812;11.762;2023-03-03T16:42:12;25.00;;;14.43;;
22160;SDS011;49035;48.812;11.762;2023-03-03T16:44:46;28.77;;;15.40;;
22160;SDS011;49035;48.812;11.762;2023-03-03T16:53:39;26.57;;;14.23;;
22160;SDS011;49035;48.812;11.762;2023-03-03T16:56:11;24.63;;;14.73;;
22160;SDS011;49035;48.812;11.762;2023-03-03T17:01:38;28.93;;;14.77;;
22160;SDS011;49035;48.812;11.762;2023-03-03T17:04:20;24.43;;;14.07;;
22160;SDS011;49035;48.812;11.762;2023-03-03T17:07:21;26.80;;;13.50;;
22160;SDS011;49035;48.812;11.762;2023-03-03T17:10:36;27.77;;;15.00;;
22160;SDS011;49035;48.812;11.762;2023-03-03T17:21:26;30.33;;;15.80;;
22160;SDS011;49035;48.812;11.762;2023-03-03T17:38:05;35.20;;;16.77;;
22160;SDS011;49035;48.812;11.762;2023-03-03T17:40:40;34.43;;;16.80;;
22160;SDS011;49035;48.812;11.762;2023-03-03T17:43:15;31.10;;;16.33;;
22160;SDS011;49035;48.812;11.762;2023-03-03T17:45:52;26.47;;;14.63;;
22160;SDS011;49035;48.812;11.762;2023-03-03T17:51:18;34.63;;;18.07;;
22160;SDS011;49035;48.812;11.762;2023-03-03T17:54:21;30.27;;;17.37;;
22160;SDS011;49035;48.812;11.762;2023-03-03T17:59:57;27.20;;;14.87;;
22160;SDS011;49035;48.812;11.762;2023-03-03T18:02:31;32.60;;;16.90;;
22160;SDS011;49035;48.812;11.762;2023-03-03T18:05:10;34.43;;;15.27;;
22160;SDS011;49035;48.812;11.762;2023-03-03T18:08:03;30.80;;;15.03;;
22160;SDS011;49035;48.812;11.762;2023-03-03T18:10:52;30.00;;;15.47;;
22160;SDS011;49035;48.812;11.762;2023-03-03T18:16:09;25.10;;;14.23;;
22160;SDS011;49035;48.812;11.762;2023-03-03T18:24:31;37.20;;;16.50;;
22160;SDS011;49035;48.812;11.762;2023-03-03T18:46:05;38.40;;;17.83;;
22160;SDS011;49035;48.812;11.762;2023-03-03T19:04:37;37.90;;;18.27;;
22160;SDS011;49035;48.812;11.762;2023-03-03T19:09:43;35.03;;;17.60;;
22160;SDS011;49035;48.812;11.762;2023-03-03T19:12:16;30.50;;;15.70;;
22160;SDS011;49035;48.812;11.762;2023-03-03T19:15:03;31.37;;;15.57;;
22160;SDS011;49035;48.812;11.762;2023-03-03T19:17:51;35.10;;;17.17;;
22160;SDS011;49035;48.812;11.762;2023-03-03T19:20:20;32.70;;;17.33;;
22160;SDS011;49035;48.812;11.762;2023-03-03T19:22:52;30.80;;;15.73;;
22160;SDS011;49035;48.812;11.762;2023-03-03T19:25:29;36.27;;;19.13;;
22160;SDS011;49035;48.812;11.762;2023-03-03T19:28:19;38.07;;;18.27;;
22160;SDS011;49035;48.812;11.762;2023-03-03T19:31:07;32.17;;;15.67;;
22160;SDS011;49035;48.812;11.762;2023-03-03T19:33:45;37.67;;;16.70;;
22160;SDS011;49035;48.812;11.762;2023-03-03T19:42:04;34.03;;;16.37;;
22160;SDS011;49035;48.812;11.762;2023-03-03T19:47:22;34.80;;;18.10;;
22160;SDS011;49035;48.812;11.762;2023-03-03T19:52:53;37.73;;;17.57;;
22160;SDS011;49035;48.812;11.762;2023-03-03T20:01:06;41.67;;;19.63;;
22160;SDS011;49035;48.812;11.762;2023-03-03T20:03:48;38.07;;;17.50;;
22160;SDS011;49035;48.812;11.762;2023-03-03T20:06:27;36.87;;;16.87;;
22160;SDS011;49035;48.812;11.762;2023-03-03T20:09:23;38.77;;;18.30;;
22160;SDS011;49035;48.812;11.762;2023-03-03T20:12:18;35.77;;;17.87;;
22160;SDS011;49035;48.812;11.762;2023-03-03T20:17:42;41.07;;;18.87;;
22160;SDS011;49035;48.812;11.762;2023-03-03T20:20:29;36.93;;;18.13;;
22160;SDS011;49035;48.812;11.762;2023-03-03T20:31:36;35.00;;;16.63;;